Autoridad de Aeronautica Civil de Panamá***
**



PERSPECTIVA DE AERODROMOS:

 

AERÓDROMOS

 

PRONOSTICO DE AERÓDROMO
TAF

AEROPUERTO INTL. DE TOCUMEN:


TAF MPTO 211700Z 2118/2224 33008KT 9999 SCT018 PROB40 2118/2122 17009KT 5000 TSRA SCT015CB BKN090 TEMPO 2206/2210 24006KT TEMPO 2212/2215 04006KT PROB30 2120/2124 18009KT 5000 SCT015CB BKN080=
AEROPUERTO MARCOS A. GELABERT:


TAF MPMG 211700Z 2118/2206 32009KT 9999 SCT018 PROB40 2119/2123 18010KT 5000 TSRA SCT015CB BKN090 TEMPO 2202/2206 VRB03KT=
AEROPUERTO ENRIQUE MALEK:


TAF MPDA 211700Z 2118/2206 21008KT 9999 SCT018 PROB40 2120/2124 5000 TSRA SCT016CB BKN080 TEMPO 2201/2204 03005KT=
AEROPUERTO PANAMA PACIFICO:


TAF MPPA 211700Z 2118/2224 01009KT 9999 SCT018 PROB40 2119/2123 19009KT 5000 TSRA SCT015CB BKN090 TEMPO 2201/2205 00000KT TEMPO 2210/2213 VRB03KT PROB30 2119/2123 21009KT 5000 SCT015CB BKN080=
AEROPUERTO SCARLETT MARTÍNEZ:


TAF MPSM 211700Z 2118/2224 35008KT 9999 SCT018 PROB40 2119/2123 16009KT 5000 TSRA SCT015CB BKN090 TEMPO 2202/2206 VRB03KT PROB30 2120/2124 18009KT 5000 SCT015CB BKN080=


Contador: 12923